Time;durP1;ratioP1;P1;durP2;ratioP2;P2;SDS_P1;SDS_P2;PMS_P1;PMS_P2;Temp;Humidity;BMP_temperature;BMP_pressure;BME280_temperature;BME280_humidity;BME280_pressure;Samples;Min_cycle;Max_cycle;Signal;HPM_P1;HPM_P2
2021/01/26 00:00:15;;;;;;;7.03;6.43;;;5.20;40.80;;;;;;5034263;28;20775;-64
2021/01/26 00:02:41;;;;;;;7.50;6.80;;;5.40;38.90;;;;;;5033955;28;20502;-64
2021/01/26 00:05:07;;;;;;;7.63;7.00;;;5.10;40.60;;;;;;5033655;28;20829;-64
2021/01/26 00:07:33;;;;;;;7.77;7.07;;;5.00;41.00;;;;;;5034431;28;20203;-63
2021/01/26 00:10:00;;;;;;;8.70;8.03;;;4.90;40.80;;;;;;5034572;28;20495;-63
2021/01/26 00:12:26;;;;;;;7.70;7.07;;;4.90;41.60;;;;;;5034496;28;20924;-66
2021/01/26 00:14:52;;;;;;;10.10;7.60;;;4.50;41.60;;;;;;5035772;28;20418;-64
2021/01/26 00:17:17;;;;;;;7.53;6.87;;;4.50;43.80;;;;;;5034748;28;20431;-63
2021/01/26 00:19:43;;;;;;;7.80;7.20;;;4.70;41.50;;;;;;5037920;28;20177;-64
2021/01/26 00:22:09;;;;;;;8.27;7.57;;;5.00;42.10;;;;;;5034854;28;20702;-66
2021/01/26 00:24:34;;;;;;;7.20;6.70;;;4.60;42.00;;;;;;5033230;28;20176;-63
2021/01/26 00:27:00;;;;;;;8.13;7.43;;;4.80;41.50;;;;;;5032040;28;20188;-63
2021/01/26 00:29:26;;;;;;;7.33;6.70;;;4.60;41.80;;;;;;5031595;28;20188;-63
2021/01/26 00:31:51;;;;;;;9.50;8.60;;;4.50;42.00;;;;;;5031888;28;20418;-64
2021/01/26 00:34:17;;;;;;;9.13;8.33;;;4.40;42.90;;;;;;5031677;28;20176;-63
2021/01/26 00:36:42;;;;;;;8.13;7.40;;;4.40;43.70;;;;;;5031838;28;20200;-64
2021/01/26 00:39:08;;;;;;;8.70;7.87;;;4.40;43.40;;;;;;5031462;28;20223;-64
2021/01/26 00:41:33;;;;;;;7.23;6.63;;;4.20;43.70;;;;;;5031950;28;20227;-63
2021/01/26 00:43:59;;;;;;;7.53;6.80;;;4.50;42.20;;;;;;5033064;28;20177;-63
2021/01/26 00:46:24;;;;;;;7.80;7.03;;;4.50;42.20;;;;;;5033449;28;20193;-63
2021/01/26 00:48:50;;;;;;;7.93;7.17;;;4.30;42.70;;;;;;5033031;28;20177;-64
2021/01/26 00:51:16;;;;;;;8.20;7.60;;;4.20;43.70;;;;;;5033098;28;20659;-63
2021/01/26 00:53:41;;;;;;;7.10;6.50;;;4.40;43.30;;;;;;5033112;28;20185;-64
2021/01/26 00:56:07;;;;;;;8.80;7.27;;;4.50;42.00;;;;;;5033062;28;20427;-63
2021/01/26 00:58:32;;;;;;;7.57;6.97;;;4.30;42.70;;;;;;5032778;28;20266;-64
2021/01/26 01:00:58;;;;;;;7.57;6.87;;;4.30;42.10;;;;;;5032983;28;20259;-63
2021/01/26 01:03:23;;;;;;;7.40;6.70;;;4.20;41.90;;;;;;5032756;28;20196;-64
2021/01/26 01:05:49;;;;;;;7.37;6.77;;;4.00;42.60;;;;;;5032660;28;20192;-64
2021/01/26 01:08:14;;;;;;;7.37;6.70;;;4.20;42.60;;;;;;5032711;28;20187;-63
2021/01/26 01:10:40;;;;;;;7.93;7.33;;;4.40;41.50;;;;;;5032696;28;20526;-64
2021/01/26 01:13:08;;;;;;;6.90;6.40;;;4.30;41.80;;;;;;5032696;28;20574;-64
2021/01/26 01:15:34;;;;;;;8.00;7.30;;;4.10;41.60;;;;;;5032511;28;20415;-64
2021/01/26 01:18:00;;;;;;;7.47;6.83;;;4.30;41.70;;;;;;5032466;28;20898;-64
2021/01/26 01:20:27;;;;;;;7.63;6.93;;;4.20;41.20;;;;;;5032483;28;20442;-64
2021/01/26 01:22:53;;;;;;;7.37;6.67;;;3.90;42.60;;;;;;5032520;28;20774;-64
2021/01/26 01:25:19;;;;;;;7.50;6.80;;;3.90;42.60;;;;;;5032469;28;20438;-64
2021/01/26 01:27:45;;;;;;;7.10;6.40;;;3.90;42.10;;;;;;5032147;28;20234;-63
2021/01/26 01:30:13;;;;;;;7.23;6.40;;;4.00;41.90;;;;;;5032333;28;20482;-64
2021/01/26 01:32:39;;;;;;;6.00;5.60;;;4.00;41.40;;;;;;5032367;28;20195;-64
2021/01/26 01:35:05;;;;;;;6.90;6.30;;;4.10;40.50;;;;;;5032276;28;20910;-64
2021/01/26 01:37:31;;;;;;;6.23;5.73;;;4.20;40.70;;;;;;5032033;28;20315;-64
2021/01/26 01:39:56;;;;;;;6.10;5.60;;;4.30;40.30;;;;;;5032019;28;20454;-64
2021/01/26 01:42:22;;;;;;;6.43;5.83;;;4.20;39.20;;;;;;5032115;28;20236;-63
2021/01/26 01:44:47;;;;;;;7.03;6.43;;;4.40;39.40;;;;;;5032141;28;20658;-63
2021/01/26 01:47:27;;;;;;;6.40;5.90;;;4.00;39.80;;;;;;5031882;28;20199;-64
2021/01/26 01:49:55;;;;;;;6.67;5.93;;;3.80;40.20;;;;;;5032146;28;20195;-63
2021/01/26 01:52:24;;;;;;;6.50;6.00;;;4.00;40.50;;;;;;5032024;28;20949;-63
2021/01/26 01:54:56;;;;;;;7.17;6.57;;;4.30;38.80;;;;;;5031814;28;20494;-63
2021/01/26 01:57:27;;;;;;;6.83;6.13;;;4.10;39.50;;;;;;5031761;28;20423;-65
2021/01/26 02:00:00;;;;;;;5.90;5.40;;;3.70;39.40;;;;;;5031750;28;20407;-62
2021/01/26 02:02:27;;;;;;;7.00;6.40;;;4.00;40.60;;;;;;5031730;28;20558;-64
2021/01/26 02:04:56;;;;;;;6.60;6.00;;;3.90;39.70;;;;;;5031763;28;20454;-63
2021/01/26 02:07:22;;;;;;;6.20;5.70;;;3.90;39.90;;;;;;5031721;28;20438;-64
2021/01/26 02:09:47;;;;;;;7.00;6.30;;;4.10;40.30;;;;;;5031937;28;20407;-66
2021/01/26 02:12:13;;;;;;;6.77;6.17;;;4.30;39.00;;;;;;5031904;28;20176;-63
2021/01/26 02:14:47;;;;;;;7.50;6.80;;;4.10;38.70;;;;;;5031682;28;20204;-64
2021/01/26 02:17:34;;;;;;;6.90;6.03;;;4.10;39.60;;;;;;5031625;28;20198;-64
2021/01/26 02:20:50;;;;;;;6.93;6.00;;;4.20;39.10;;;;;;5031703;28;20415;-65
2021/01/26 02:23:18;;;;;;;6.17;5.60;;;4.20;39.00;;;;;;5031613;28;20487;-64
2021/01/26 02:26:28;;;;;;;6.70;6.20;;;4.20;38.30;;;;;;5031442;28;20404;-64
2021/01/26 02:29:08;;;;;;;7.10;6.40;;;4.30;38.70;;;;;;4977393;28;20903;-64
2021/01/26 02:31:59;;;;;;;7.83;6.50;;;4.30;38.20;;;;;;5031303;28;20500;-65
2021/01/26 02:35:09;;;;;;;7.53;6.83;;;4.30;39.10;;;;;;5031389;28;20462;-64
2021/01/26 02:38:09;;;;;;;7.13;6.53;;;4.30;38.30;;;;;;5031042;28;20435;-64
2021/01/26 02:40:51;;;;;;;7.10;6.23;;;4.20;38.60;;;;;;4988580;28;20439;-65
2021/01/26 02:43:51;;;;;;;7.53;6.83;;;4.30;38.50;;;;;;5031033;28;20969;-64
2021/01/26 02:46:39;;;;;;;6.50;5.90;;;4.20;39.10;;;;;;5030982;28;20872;-64
2021/01/26 02:49:37;;;;;;;8.07;7.30;;;4.10;38.00;;;;;;5030909;28;20530;-65
2021/01/26 02:52:14;;;;;;;7.10;6.40;;;4.10;38.70;;;;;;5030928;28;20419;-64
2021/01/26 02:55:04;;;;;;;6.70;5.93;;;3.70;39.20;;;;;;5031079;28;20408;-63
2021/01/26 02:57:52;;;;;;;6.90;6.30;;;3.80;39.50;;;;;;5030727;28;20500;-64
2021/01/26 03:00:24;;;;;;;7.53;6.83;;;3.90;39.60;;;;;;5030924;28;20785;-64
2021/01/26 03:03:08;;;;;;;7.70;7.00;;;3.70;39.70;;;;;;5031091;28;20506;-64
2021/01/26 03:06:02;;;;;;;9.33;7.10;;;4.00;40.20;;;;;;5030354;28;20395;-64
2021/01/26 03:08:53;;;;;;;7.77;6.60;;;4.10;39.10;;;;;;5019894;28;20788;-63
2021/01/26 03:11:25;;;;;;;7.53;6.60;;;3.80;38.70;;;;;;5030728;28;20766;-65
2021/01/26 03:14:05;;;;;;;7.70;6.90;;;3.90;40.20;;;;;;5030930;28;20414;-64
2021/01/26 03:16:32;;;;;;;7.43;6.50;;;3.90;39.80;;;;;;5030703;28;20450;-64
2021/01/26 03:19:27;;;;;;;7.23;6.50;;;3.90;39.70;;;;;;5030626;28;20768;-64
2021/01/26 03:21:58;;;;;;;8.73;7.73;;;3.60;40.10;;;;;;5030626;28;20451;-63
2021/01/26 03:24:28;;;;;;;7.53;6.93;;;3.90;39.70;;;;;;5030779;28;20781;-64
2021/01/26 03:26:54;;;;;;;8.30;7.20;;;4.00;40.00;;;;;;5030469;28;20455;-64
2021/01/26 03:29:28;;;;;;;8.97;7.77;;;4.20;39.80;;;;;;5030415;28;20441;-64
2021/01/26 03:31:54;;;;;;;7.60;6.90;;;4.00;39.40;;;;;;5030789;28;20423;-64
2021/01/26 03:34:21;;;;;;;7.97;6.73;;;3.90;40.20;;;;;;5030592;28;20925;-65
2021/01/26 03:36:47;;;;;;;6.73;6.03;;;3.70;39.70;;;;;;5030529;28;20521;-64
2021/01/26 03:39:12;;;;;;;9.80;7.50;;;3.70;40.40;;;;;;5030284;28;20989;-63
2021/01/26 03:41:38;;;;;;;7.97;7.20;;;3.50;40.40;;;;;;5030379;28;20252;-64
2021/01/26 03:44:06;;;;;;;8.57;7.47;;;3.80;41.40;;;;;;5030438;28;20168;-63
2021/01/26 03:46:51;;;;;;;7.57;6.17;;;3.80;39.80;;;;;;5030388;28;20427;-63
2021/01/26 03:49:26;;;;;;;8.00;6.77;;;3.80;39.20;;;;;;5030400;28;20418;-63
2021/01/26 03:52:16;;;;;;;7.97;7.27;;;4.00;39.50;;;;;;5030316;28;20403;-65
2021/01/26 03:54:48;;;;;;;9.23;7.90;;;3.70;39.80;;;;;;5030342;28;20410;-64
2021/01/26 03:57:36;;;;;;;9.17;8.00;;;3.90;39.90;;;;;;5030044;28;20427;-64
2021/01/26 04:00:10;;;;;;;7.90;6.80;;;3.80;39.30;;;;;;5030503;28;20407;-63
2021/01/26 04:02:54;;;;;;;9.67;8.00;;;4.00;39.50;;;;;;5030327;28;20458;-63
2021/01/26 04:05:36;;;;;;;8.13;7.20;;;4.00;39.40;;;;;;5030327;28;20486;-63
2021/01/26 04:08:14;;;;;;;8.60;7.70;;;3.40;40.50;;;;;;5030114;28;20446;-63
2021/01/26 04:10:51;;;;;;;7.83;7.03;;;3.10;41.90;;;;;;5030282;28;20410;-63
2021/01/26 04:13:24;;;;;;;7.47;6.80;;;3.20;41.90;;;;;;5030218;28;20419;-64
2021/01/26 04:15:54;;;;;;;7.30;6.60;;;3.40;42.00;;;;;;5030117;28;20466;-64
2021/01/26 04:18:28;;;;;;;8.80;8.02;;;3.50;41.30;;;;;;5032228;28;20419;-63
2021/01/26 04:20:56;;;;;;;7.90;7.03;;;3.40;42.50;;;;;;5033890;28;20258;-63
2021/01/26 04:23:21;;;;;;;8.67;7.80;;;3.60;40.80;;;;;;5033560;28;20557;-63
2021/01/26 04:25:50;;;;;;;7.97;7.17;;;3.50;40.80;;;;;;5033464;28;20961;-63
2021/01/26 04:28:33;;;;;;;7.47;6.43;;;3.50;41.40;;;;;;5033364;28;20395;-64
2021/01/26 04:30:58;;;;;;;7.30;6.57;;;3.70;40.50;;;;;;5033565;28;20404;-63
2021/01/26 04:33:24;;;;;;;6.57;5.97;;;3.60;40.40;;;;;;5033502;28;20824;-63
2021/01/26 04:35:49;;;;;;;7.07;6.47;;;3.50;40.80;;;;;;5033447;28;20204;-63
2021/01/26 04:38:14;;;;;;;7.53;6.83;;;3.70;40.40;;;;;;5033059;28;20204;-63
2021/01/26 04:40:40;;;;;;;6.43;5.83;;;3.70;40.80;;;;;;5033233;28;20199;-63
2021/01/26 04:43:11;;;;;;;6.83;6.23;;;3.90;41.10;;;;;;5033140;28;20196;-64
2021/01/26 04:45:46;;;;;;;6.83;5.73;;;3.90;40.50;;;;;;5033210;28;20249;-64
2021/01/26 04:48:23;;;;;;;7.90;6.57;;;4.00;41.20;;;;;;5032971;28;20961;-64
2021/01/26 04:51:08;;;;;;;6.20;5.60;;;3.80;39.80;;;;;;5033042;28;20406;-63
2021/01/26 04:53:46;;;;;;;5.87;5.37;;;3.60;41.00;;;;;;5033100;28;20414;-65
2021/01/26 04:56:20;;;;;;;5.60;5.17;;;3.70;40.80;;;;;;5033107;28;20427;-63
2021/01/26 04:58:55;;;;;;;6.50;5.90;;;3.80;40.70;;;;;;5032695;28;20411;-63
2021/01/26 05:01:47;;;;;;;7.33;5.77;;;3.70;40.40;;;;;;5032842;28;20397;-64
2021/01/26 05:04:19;;;;;;;6.80;6.13;;;3.70;41.20;;;;;;5032723;28;20422;-64
2021/01/26 05:06:55;;;;;;;6.40;5.87;;;3.70;40.80;;;;;;5032528;28;20789;-64
2021/01/26 05:09:26;;;;;;;5.37;4.97;;;3.80;40.70;;;;;;5032343;28;20406;-64
2021/01/26 05:11:54;;;;;;;6.23;5.70;;;3.80;40.90;;;;;;5032501;28;20414;-64
2021/01/26 05:14:29;;;;;;;6.40;5.87;;;4.00;40.80;;;;;;5032473;28;20407;-64
2021/01/26 05:17:02;;;;;;;6.60;6.00;;;4.00;40.60;;;;;;5032399;28;21062;-64
2021/01/26 05:19:45;;;;;;;6.40;5.80;;;4.00;40.50;;;;;;5032475;28;20487;-64
2021/01/26 05:22:34;;;;;;;7.73;5.77;;;4.00;41.10;;;;;;5032493;28;20455;-64
2021/01/26 05:25:09;;;;;;;6.07;5.57;;;3.90;40.50;;;;;;5032506;28;20423;-65
2021/01/26 05:27:35;;;;;;;7.27;6.67;;;3.80;40.70;;;;;;5032043;28;20445;-64
2021/01/26 05:30:09;;;;;;;5.70;5.20;;;3.90;41.60;;;;;;5032155;28;20411;-65
2021/01/26 05:32:35;;;;;;;6.20;5.70;;;4.00;41.10;;;;;;5032298;28;20425;-64
2021/01/26 05:35:01;;;;;;;8.27;5.70;;;4.10;40.40;;;;;;5032278;28;20411;-64
2021/01/26 05:37:27;;;;;;;6.03;5.53;;;4.00;41.20;;;;;;5031969;28;20937;-65
2021/01/26 05:40:09;;;;;;;6.80;5.90;;;4.10;40.80;;;;;;5032066;28;20690;-66
2021/01/26 05:42:36;;;;;;;6.30;5.70;;;4.10;40.70;;;;;;5031160;28;20428;-65
2021/01/26 05:45:15;;;;;;;7.50;5.57;;;4.10;40.50;;;;;;5032087;28;20169;-63
2021/01/26 05:47:40;;;;;;;6.50;5.90;;;4.30;40.30;;;;;;5031795;28;20423;-64
2021/01/26 05:50:26;;;;;;;6.00;5.47;;;4.30;40.60;;;;;;5032134;28;20735;-64
2021/01/26 05:52:53;;;;;;;6.03;5.53;;;4.10;40.10;;;;;;5031690;28;20177;-64
2021/01/26 05:55:25;;;;;;;5.40;4.97;;;4.10;40.40;;;;;;5031793;28;20431;-65
2021/01/26 05:57:52;;;;;;;6.23;5.60;;;4.20;40.30;;;;;;5031414;28;20423;-65
2021/01/26 06:00:25;;;;;;;4.63;4.20;;;4.00;41.70;;;;;;5030996;28;20420;-64
2021/01/26 06:03:07;;;;;;;5.10;4.53;;;4.10;40.20;;;;;;5031520;28;20451;-66
2021/01/26 06:05:32;;;;;;;4.90;4.53;;;4.10;40.10;;;;;;5031541;28;20396;-64
2021/01/26 06:08:07;;;;;;;5.27;4.67;;;4.40;39.40;;;;;;5031297;28;20964;-65
2021/01/26 06:10:33;;;;;;;5.40;4.23;;;4.40;39.20;;;;;;5030492;28;20542;-65
2021/01/26 06:13:00;;;;;;;4.53;4.13;;;4.50;39.70;;;;;;5031019;28;20465;-66
2021/01/26 06:15:28;;;;;;;4.97;4.67;;;4.60;40.10;;;;;;5031534;28;20446;-67
2021/01/26 06:18:16;;;;;;;4.67;4.27;;;4.40;39.50;;;;;;5030823;28;20450;-64
2021/01/26 06:20:43;;;;;;;4.00;3.60;;;4.40;39.10;;;;;;5031344;28;20448;-66
2021/01/26 06:23:20;;;;;;;4.27;3.97;;;4.50;38.60;;;;;;5031070;28;20466;-64
2021/01/26 06:25:55;;;;;;;5.40;4.83;;;4.60;39.30;;;;;;5031571;28;20403;-64
2021/01/26 06:28:26;;;;;;;4.73;4.23;;;4.70;39.40;;;;;;5031163;28;20955;-65
2021/01/26 06:31:07;;;;;;;4.30;3.90;;;4.70;39.70;;;;;;5031307;28;20770;-65
2021/01/26 06:34:10;;;;;;;4.37;3.97;;;4.70;38.20;;;;;;5031252;28;20438;-64
2021/01/26 06:36:54;;;;;;;4.20;3.90;;;4.70;39.10;;;;;;5031347;28;20980;-64
2021/01/26 06:39:39;;;;;;;4.03;3.73;;;4.40;38.70;;;;;;5030600;28;20427;-65
2021/01/26 06:42:43;;;;;;;4.90;4.30;;;4.50;39.80;;;;;;5030918;28;20962;-63
2021/01/26 06:45:19;;;;;;;4.40;4.00;;;4.50;38.90;;;;;;5013552;28;20423;-64
2021/01/26 06:48:15;;;;;;;4.70;4.40;;;4.60;40.00;;;;;;5030844;28;20422;-64
2021/01/26 06:50:46;;;;;;;4.80;4.47;;;4.80;39.50;;;;;;5031121;28;20934;-65
2021/01/26 06:53:41;;;;;;;4.10;3.80;;;4.60;39.70;;;;;;5031199;28;20454;-66
2021/01/26 06:56:09;;;;;;;4.87;3.73;;;4.50;40.40;;;;;;5031221;28;20488;-67
2021/01/26 06:58:54;;;;;;;6.50;4.90;;;5.70;58.20;;;;;;5031922;28;20399;-66
2021/01/26 07:01:58;;;;;;;4.97;4.57;;;6.40;50.20;;;;;;5032661;28;20422;-66
2021/01/26 07:05:01;;;;;;;4.00;3.10;;;7.00;46.40;;;;;;5032016;28;20415;-66
2021/01/26 07:07:51;;;;;;;4.03;3.40;;;7.60;34.90;;;;;;5031710;28;20419;-65
2021/01/26 07:10:45;;;;;;;4.53;4.13;;;6.70;44.50;;;;;;5031294;28;20477;-66
2021/01/26 07:13:31;;;;;;;5.25;4.30;;;7.10;48.60;;;;;;5033363;28;20413;-67
2021/01/26 07:16:34;;;;;;;4.70;4.30;;;6.80;33.60;;;;;;5034903;28;20653;-66
2021/01/26 07:19:05;;;;;;;4.00;3.23;;;6.10;36.00;;;;;;5036013;28;20468;-65
2021/01/26 07:22:04;;;;;;;3.43;3.13;;;5.80;37.40;;;;;;5030677;28;20405;-66
2021/01/26 07:24:36;;;;;;;3.83;3.53;;;5.60;38.00;;;;;;5032025;28;20418;-66
2021/01/26 07:27:16;;;;;;;3.57;3.27;;;5.50;38.90;;;;;;5031501;28;20940;-66
2021/01/26 07:29:47;;;;;;;3.77;3.47;;;5.60;39.00;;;;;;5031370;28;20775;-66
2021/01/26 07:32:28;;;;;;;4.17;3.87;;;5.60;39.60;;;;;;5030542;28;20410;-66
2021/01/26 07:35:05;;;;;;;8.97;3.73;;;5.00;39.40;;;;;;5030535;28;20411;-65
2021/01/26 07:37:50;;;;;;;3.50;3.03;;;4.90;41.60;;;;;;5029081;28;20439;-68
2021/01/26 07:40:22;;;;;;;3.70;3.50;;;5.00;42.30;;;;;;5023016;28;20435;-66
2021/01/26 07:43:06;;;;;;;3.00;2.73;;;5.30;41.90;;;;;;5031108;28;20457;-67
2021/01/26 07:45:45;;;;;;;4.27;2.97;;;5.20;40.00;;;;;;5031970;28;20775;-67
2021/01/26 07:48:27;;;;;;;4.07;3.33;;;5.10;39.80;;;;;;5032427;28;20454;-68
2021/01/26 07:50:57;;;;;;;3.50;3.00;;;5.10;41.50;;;;;;5030516;28;20443;-67
2021/01/26 07:53:32;;;;;;;4.80;2.77;;;5.10;40.50;;;;;;5034271;28;20502;-66
2021/01/26 07:56:04;;;;;;;4.70;3.90;;;5.30;40.10;;;;;;5034279;28;20800;-68
2021/01/26 07:58:31;;;;;;;5.60;3.50;;;5.10;40.60;;;;;;5034555;28;20418;-65
2021/01/26 08:00:59;;;;;;;4.70;3.07;;;5.10;40.80;;;;;;5033915;28;20418;-67
2021/01/26 08:03:27;;;;;;;3.50;3.20;;;5.20;38.90;;;;;;5035283;28;20529;-68
2021/01/26 08:05:54;;;;;;;5.60;3.53;;;5.20;39.30;;;;;;5033631;28;20467;-65
2021/01/26 08:08:25;;;;;;;3.60;3.30;;;5.10;39.70;;;;;;5034025;28;20788;-66
2021/01/26 08:11:25;;;;;;;5.83;3.33;;;5.20;39.10;;;;;;5036978;28;20414;-66
2021/01/26 08:14:03;;;;;;;4.00;3.70;;;5.20;38.60;;;;;;5033861;28;20478;-64
2021/01/26 08:16:54;;;;;;;4.70;3.40;;;5.00;39.60;;;;;;5033805;28;20431;-65
2021/01/26 08:19:31;;;;;;;4.23;3.77;;;4.80;39.90;;;;;;5020338;28;20446;-64
2021/01/26 08:21:58;;;;;;;3.80;3.50;;;4.90;40.30;;;;;;5033641;28;20497;-65
2021/01/26 08:24:36;;;;;;;8.33;6.40;;;4.80;40.20;;;;;;5033871;28;20967;-67
2021/01/26 08:27:26;;;;;;;4.60;4.20;;;4.80;40.70;;;;;;5033368;28;20427;-66
2021/01/26 08:30:00;;;;;;;4.53;4.10;;;4.80;40.70;;;;;;5033259;28;20400;-66
2021/01/26 08:32:25;;;;;;;4.00;3.73;;;5.10;39.60;;;;;;5033501;28;20399;-65
2021/01/26 08:35:03;;;;;;;4.87;4.30;;;4.90;40.00;;;;;;5034392;28;20461;-65
2021/01/26 08:37:40;;;;;;;5.70;4.43;;;4.70;39.70;;;;;;5033169;28;20204;-66
2021/01/26 08:40:12;;;;;;;6.07;3.80;;;4.70;42.10;;;;;;5033476;28;20482;-67
2021/01/26 08:42:40;;;;;;;5.53;4.17;;;4.50;41.30;;;;;;5033328;28;20463;-67
2021/01/26 08:45:25;;;;;;;5.47;5.07;;;4.50;41.80;;;;;;5033644;28;20465;-65
2021/01/26 08:47:52;;;;;;;6.23;5.50;;;4.60;42.00;;;;;;5033176;28;20423;-66
2021/01/26 08:50:26;;;;;;;6.23;5.73;;;4.50;41.50;;;;;;5033256;28;20414;-66
2021/01/26 08:52:56;;;;;;;5.73;5.23;;;4.60;41.20;;;;;;5033200;28;20430;-66
2021/01/26 08:55:37;;;;;;;7.33;5.40;;;4.60;42.30;;;;;;5033215;28;20518;-65
2021/01/26 08:58:03;;;;;;;6.00;4.87;;;4.60;41.80;;;;;;5032797;28;20422;-66
2021/01/26 09:00:37;;;;;;;6.33;5.77;;;4.70;41.70;;;;;;5032964;28;20412;-66
2021/01/26 09:03:51;;;;;;;5.77;5.27;;;4.60;41.00;;;;;;5031854;28;20431;-63
2021/01/26 09:06:39;;;;;;;5.80;5.10;;;4.60;41.70;;;;;;5005143;28;20474;-65
2021/01/26 09:09:09;;;;;;;5.07;4.60;;;4.40;41.70;;;;;;5032370;28;20497;-66
2021/01/26 09:11:41;;;;;;;5.57;5.17;;;4.30;42.30;;;;;;5032837;28;20400;-64
2021/01/26 09:14:28;;;;;;;6.73;5.57;;;4.30;42.60;;;;;;5032678;28;20404;-66
2021/01/26 09:17:04;;;;;;;6.20;4.43;;;4.40;41.10;;;;;;5031883;28;20485;-65
2021/01/26 09:19:45;;;;;;;5.00;4.50;;;4.40;40.70;;;;;;5032624;28;20495;-68
2021/01/26 09:22:20;;;;;;;5.27;4.87;;;4.50;40.40;;;;;;5032702;28;21170;-67
2021/01/26 09:24:47;;;;;;;4.80;4.47;;;4.50;40.50;;;;;;5035689;28;20398;-67
2021/01/26 09:27:22;;;;;;;4.63;4.17;;;4.70;39.60;;;;;;5033300;28;20430;-66
2021/01/26 09:30:08;;;;;;;5.60;4.60;;;4.60;39.30;;;;;;5017422;28;20547;-67
2021/01/26 09:32:36;;;;;;;5.43;4.93;;;4.80;41.70;;;;;;5032429;28;20407;-66
2021/01/26 09:35:33;;;;;;;4.30;4.00;;;5.00;39.40;;;;;;5032055;28;20412;-67
2021/01/26 09:38:12;;;;;;;4.37;4.00;;;5.00;38.50;;;;;;5031910;28;20928;-65
2021/01/26 09:40:40;;;;;;;5.73;5.13;;;4.90;38.40;;;;;;5031856;28;20427;-66
2021/01/26 09:43:14;;;;;;;4.33;3.73;;;4.90;38.20;;;;;;5032118;28;20455;-65
2021/01/26 09:45:40;;;;;;;5.97;3.57;;;4.80;38.20;;;;;;5032361;28;20961;-64
2021/01/26 09:48:06;;;;;;;3.70;3.40;;;4.90;37.30;;;;;;5031829;28;20495;-65
2021/01/26 09:50:33;;;;;;;3.83;3.47;;;5.00;38.50;;;;;;5032252;28;20914;-66
2021/01/26 09:53:03;;;;;;;5.20;3.83;;;5.20;38.60;;;;;;5032084;28;20503;-68
2021/01/26 09:55:30;;;;;;;3.40;3.10;;;5.30;37.40;;;;;;5032274;28;20399;-67
2021/01/26 09:57:57;;;;;;;5.77;3.80;;;5.30;37.70;;;;;;5032471;28;20426;-65
2021/01/26 10:00:24;;;;;;;3.63;3.30;;;5.10;37.00;;;;;;5031969;28;20407;-66
2021/01/26 10:02:56;;;;;;;6.07;3.87;;;5.20;37.20;;;;;;5032449;28;20549;-65
2021/01/26 10:05:29;;;;;;;3.53;3.23;;;5.10;38.40;;;;;;5031802;28;20411;-68
2021/01/26 10:08:20;;;;;;;4.90;3.60;;;5.20;36.90;;;;;;5033723;28;20442;-68
2021/01/26 10:10:46;;;;;;;3.57;3.10;;;5.30;36.40;;;;;;5034551;28;20402;-66
2021/01/26 10:13:30;;;;;;;3.23;3.03;;;5.40;36.60;;;;;;5032711;28;20466;-66
2021/01/26 10:15:57;;;;;;;3.60;3.40;;;5.60;35.10;;;;;;5031854;28;20271;-67
2021/01/26 10:18:30;;;;;;;3.53;3.23;;;5.30;36.00;;;;;;5034420;28;20497;-67
2021/01/26 10:21:05;;;;;;;6.53;3.37;;;5.50;36.50;;;;;;5034612;28;20940;-67
2021/01/26 10:23:41;;;;;;;3.70;3.40;;;5.40;34.60;;;;;;5031767;28;20465;-66
2021/01/26 10:26:23;;;;;;;5.60;3.40;;;5.50;35.80;;;;;;5031970;28;20430;-66
2021/01/26 10:29:07;;;;;;;2.90;2.70;;;5.60;34.40;;;;;;5031510;28;20399;-67
2021/01/26 10:31:46;;;;;;;3.60;3.40;;;5.40;34.90;;;;;;5031685;28;20411;-65
2021/01/26 10:34:17;;;;;;;5.20;4.50;;;5.30;37.40;;;;;;5031792;28;20446;-68
2021/01/26 10:36:43;;;;;;;3.20;3.00;;;5.30;35.60;;;;;;5031969;28;20427;-66
2021/01/26 10:39:25;;;;;;;3.70;3.40;;;5.30;35.00;;;;;;5031135;28;20918;-65
2021/01/26 10:42:21;;;;;;;3.63;3.13;;;5.40;35.90;;;;;;5031579;28;20256;-67
2021/01/26 10:44:51;;;;;;;3.50;3.30;;;5.40;35.70;;;;;;5010066;28;20443;-68
2021/01/26 10:47:32;;;;;;;3.43;3.23;;;5.20;35.20;;;;;;5030141;28;20455;-66
2021/01/26 10:50:02;;;;;;;3.37;3.10;;;5.20;35.40;;;;;;5029923;28;20494;-66
2021/01/26 10:52:47;;;;;;;3.10;2.90;;;5.30;35.10;;;;;;5031209;28;20500;-67
2021/01/26 10:55:18;;;;;;;3.83;3.43;;;5.10;34.70;;;;;;5030520;28;20411;-66
2021/01/26 10:57:45;;;;;;;4.00;3.80;;;5.20;35.80;;;;;;5030775;28;20941;-67
2021/01/26 11:00:16;;;;;;;3.63;3.43;;;5.10;35.20;;;;;;5030891;28;20516;-66
2021/01/26 11:02:42;;;;;;;3.20;3.00;;;5.10;35.80;;;;;;5030543;28;20463;-68
2021/01/26 11:05:11;;;;;;;5.43;3.73;;;5.20;35.80;;;;;;5030625;28;20498;-68
2021/01/26 11:07:37;;;;;;;3.53;3.23;;;5.40;36.00;;;;;;5030255;28;20192;-68
2021/01/26 11:10:09;;;;;;;5.63;3.00;;;5.50;34.80;;;;;;5030516;28;20426;-67
2021/01/26 11:12:36;;;;;;;3.63;3.20;;;5.60;34.00;;;;;;5030578;28;20794;-68
2021/01/26 11:15:05;;;;;;;3.80;3.50;;;5.40;33.90;;;;;;5030607;28;20415;-67
2021/01/26 11:17:31;;;;;;;3.27;2.93;;;5.70;34.10;;;;;;5029938;28;20530;-67
2021/01/26 11:19:56;;;;;;;3.63;3.33;;;5.60;34.60;;;;;;5030451;28;20458;-68
2021/01/26 11:22:22;;;;;;;4.30;3.10;;;5.70;34.10;;;;;;5030392;28;20556;-66
2021/01/26 11:24:47;;;;;;;3.37;3.07;;;5.80;32.90;;;;;;5030723;28;20173;-67
2021/01/26 11:27:13;;;;;;;4.73;3.20;;;5.80;34.70;;;;;;5032651;28;20196;-66
2021/01/26 11:29:38;;;;;;;3.70;3.07;;;5.80;33.10;;;;;;5034386;28;20176;-66
2021/01/26 11:32:04;;;;;;;2.93;2.70;;;5.70;33.10;;;;;;5034447;28;20524;-66
2021/01/26 11:34:31;;;;;;;8.67;3.27;;;5.70;33.50;;;;;;5034618;28;20230;-66
2021/01/26 11:36:57;;;;;;;4.97;3.40;;;5.60;32.40;;;;;;5034191;28;20563;-66
2021/01/26 11:39:22;;;;;;;2.33;2.13;;;5.60;32.40;;;;;;5034281;28;20804;-66
2021/01/26 11:41:48;;;;;;;5.03;4.07;;;5.60;32.80;;;;;;5034146;28;20415;-67
2021/01/26 11:44:13;;;;;;;2.97;2.77;;;5.50;31.80;;;;;;5034188;28;20187;-66
2021/01/26 11:46:39;;;;;;;6.40;2.83;;;5.50;32.50;;;;;;5034255;28;20200;-66
2021/01/26 11:49:05;;;;;;;3.57;2.90;;;5.50;32.40;;;;;;5034209;28;20183;-66
2021/01/26 11:51:30;;;;;;;4.77;3.20;;;5.60;31.70;;;;;;5034298;28;20177;-66
2021/01/26 11:53:56;;;;;;;4.73;2.93;;;5.40;30.90;;;;;;5034197;28;20184;-66
2021/01/26 11:56:22;;;;;;;4.90;3.30;;;5.50;31.50;;;;;;5034038;28;20193;-66
2021/01/26 11:58:49;;;;;;;4.90;3.10;;;5.50;31.90;;;;;;5033882;28;20494;-66
2021/01/26 12:01:15;;;;;;;3.53;3.23;;;5.70;31.00;;;;;;5034082;28;20411;-66
2021/01/26 12:03:41;;;;;;;6.73;5.80;;;5.70;30.80;;;;;;5033904;28;20466;-66
2021/01/26 12:06:07;;;;;;;3.80;3.30;;;5.70;31.00;;;;;;5034171;28;20947;-67
2021/01/26 12:08:32;;;;;;;4.10;3.20;;;5.80;30.00;;;;;;5033670;28;20569;-67
2021/01/26 12:10:58;;;;;;;3.67;3.23;;;5.90;30.00;;;;;;5034318;28;20188;-68
2021/01/26 12:13:23;;;;;;;3.97;3.63;;;5.90;30.70;;;;;;5033754;28;20583;-65
2021/01/26 12:15:49;;;;;;;3.10;2.90;;;6.00;30.80;;;;;;5033628;28;20197;-66
2021/01/26 12:18:15;;;;;;;4.20;3.80;;;6.10;31.30;;;;;;5023265;28;20184;-68
2021/01/26 12:20:40;;;;;;;4.13;3.57;;;6.10;30.00;;;;;;5033515;28;20181;-66
2021/01/26 12:23:06;;;;;;;4.60;3.47;;;6.10;29.50;;;;;;5033689;28;20568;-66
2021/01/26 12:25:34;;;;;;;3.43;3.13;;;6.30;30.40;;;;;;5033457;28;20168;-67
2021/01/26 12:28:00;;;;;;;4.30;4.00;;;6.30;29.60;;;;;;5033905;28;20439;-66
2021/01/26 12:30:26;;;;;;;3.70;3.40;;;6.30;30.00;;;;;;5033744;28;20419;-68
2021/01/26 12:32:51;;;;;;;3.93;3.70;;;6.10;29.50;;;;;;5033374;28;20411;-67
2021/01/26 12:35:25;;;;;;;6.10;3.43;;;6.00;30.00;;;;;;5033575;28;20446;-66
2021/01/26 12:37:51;;;;;;;3.43;3.23;;;6.00;30.70;;;;;;5032122;28;20686;-65
2021/01/26 12:40:17;;;;;;;4.10;3.70;;;6.10;30.40;;;;;;5034014;28;20438;-66
2021/01/26 12:42:43;;;;;;;3.63;3.37;;;6.00;30.30;;;;;;5033004;28;20674;-65
2021/01/26 12:45:11;;;;;;;4.47;4.03;;;5.90;30.00;;;;;;5033489;28;20895;-67
2021/01/26 12:47:37;;;;;;;3.80;3.50;;;6.10;30.20;;;;;;5032699;28;20443;-66
2021/01/26 12:50:07;;;;;;;5.13;3.23;;;6.20;30.00;;;;;;5033010;28;20436;-68
2021/01/26 12:52:33;;;;;;;4.10;3.27;;;6.20;29.60;;;;;;5033683;28;20515;-67
2021/01/26 12:54:58;;;;;;;3.60;2.93;;;6.10;30.40;;;;;;5033079;28;20498;-66
2021/01/26 12:57:24;;;;;;;4.20;3.80;;;6.20;30.00;;;;;;5032976;28;20207;-66
2021/01/26 12:59:51;;;;;;;3.90;3.50;;;6.10;30.30;;;;;;5033675;28;20180;-67
2021/01/26 13:02:19;;;;;;;4.20;3.40;;;6.10;30.30;;;;;;5032687;28;20200;-67
2021/01/26 13:04:45;;;;;;;3.77;3.43;;;6.10;31.20;;;;;;5021599;28;20915;-66
2021/01/26 13:07:10;;;;;;;3.90;3.47;;;6.10;29.80;;;;;;5030007;28;20443;-66
2021/01/26 13:09:36;;;;;;;3.13;2.77;;;6.10;29.90;;;;;;5032689;28;20185;-66
2021/01/26 13:12:01;;;;;;;6.23;3.10;;;6.30;29.60;;;;;;5032260;28;20605;-68
2021/01/26 13:14:27;;;;;;;3.40;3.07;;;6.30;30.60;;;;;;5032934;28;20177;-65
2021/01/26 13:16:52;;;;;;;3.80;2.50;;;6.30;29.60;;;;;;5033296;28;20211;-65
2021/01/26 13:19:18;;;;;;;5.53;2.83;;;6.30;29.60;;;;;;5032356;28;20176;-66
2021/01/26 13:21:43;;;;;;;4.83;3.43;;;6.40;30.00;;;;;;5032667;28;20647;-69
2021/01/26 13:24:09;;;;;;;3.67;3.27;;;6.50;29.40;;;;;;5032522;28;20288;-66
2021/01/26 13:26:35;;;;;;;4.50;3.73;;;6.70;30.60;;;;;;5032616;28;20199;-65
2021/01/26 13:29:01;;;;;;;5.80;3.00;;;6.60;29.90;;;;;;5032111;28;20177;-65